Time;durP1;ratioP1;P1;durP2;ratioP2;P2;SDS_P1;SDS_P2;PMS_P1;PMS_P2;Temp;Humidity;BMP_temperature;BMP_pressure;BME280_temperature;BME280_humidity;BME280_pressure;Samples;Min_cycle;Max_cycle;Signal;HPM_P1;HPM_P2
2023/07/15 00:00:53;;;;;;;;;;;18.30;67.40;;;;;;4121609;28;19922;-90
2023/07/15 00:02:54;;;;;;;;;;;18.30;68.30;;;;;;4107284;28;19916;-89
2023/07/15 00:04:55;;;;;;;;;;;18.20;68.40;;;;;;4122697;28;19945;-88
2023/07/15 00:06:56;;;;;;;;;;;18.20;67.60;;;;;;4121141;28;19922;-88
2023/07/15 00:08:57;;;;;;;;;;;18.20;67.80;;;;;;4104237;28;19924;-87
2023/07/15 00:10:58;;;;;;;;;;;18.20;68.00;;;;;;4121390;28;20343;-89
2023/07/15 00:12:59;;;;;;;;;;;18.30;68.00;;;;;;4124024;28;19929;-88
2023/07/15 00:15:00;;;;;;;;;;;18.20;68.00;;;;;;4121143;28;19917;-88
2023/07/15 00:17:00;;;;;;;;;;;18.20;69.10;;;;;;4117622;28;19953;-88
2023/07/15 00:19:01;;;;;;;;;;;18.30;68.90;;;;;;4122719;28;19988;-89
2023/07/15 00:21:09;;;;;;;;;;;18.20;69.10;;;;;;4104897;28;19918;-87
2023/07/15 00:23:16;;;;;;;;;;;18.30;68.70;;;;;;4121213;28;19948;-89
2023/07/15 00:25:20;;;;;;;;;;;18.20;68.40;;;;;;4121657;28;19910;-88
2023/07/15 00:27:24;;;;;;;;;;;18.20;68.20;;;;;;4120867;28;19921;-89
2023/07/15 00:29:32;;;;;;;;;;;18.20;68.10;;;;;;4120638;28;19921;-87
2023/07/15 00:31:36;;;;;;;;;;;18.20;68.60;;;;;;4120651;28;19952;-88
2023/07/15 00:33:37;;;;;;;;;;;18.20;68.30;;;;;;4119716;28;20287;-88
2023/07/15 00:35:57;;;;;;;;;;;18.30;68.40;;;;;;4119232;28;19918;-89
2023/07/15 00:38:18;;;;;;;;;;;18.20;68.70;;;;;;4111847;28;19929;-89
2023/07/15 00:40:45;;;;;;;;;;;18.20;68.50;;;;;;4119723;28;20001;-88
2023/07/15 00:43:25;;;;;;;;;;;18.20;68.70;;;;;;4122609;28;19910;-89
2023/07/15 00:46:05;;;;;;;;;;;18.20;69.00;;;;;;4119361;28;19918;-88
2023/07/15 00:48:28;;;;;;;;;;;18.20;68.90;;;;;;4121034;28;19949;-89
2023/07/15 00:50:48;;;;;;;;;;;18.20;69.10;;;;;;4121917;28;19957;-88
2023/07/15 00:52:49;;;;;;;;;;;18.20;69.00;;;;;;4119840;28;21784;-88
2023/07/15 00:54:52;;;;;;;;;;;18.20;69.50;;;;;;4121444;28;20000;-88
2023/07/15 00:56:53;;;;;;;;;;;18.20;69.50;;;;;;4119181;28;20009;-88
2023/07/15 00:58:54;;;;;;;;;;;18.20;69.30;;;;;;4119376;28;19964;-89
2023/07/15 01:00:55;;;;;;;;;;;18.20;69.30;;;;;;4121380;28;19917;-88
2023/07/15 01:02:59;;;;;;;;;;;18.30;69.80;;;;;;4121991;28;19933;-87
2023/07/15 01:05:00;;;;;;;;;;;18.30;70.10;;;;;;4122359;28;19910;-88
2023/07/15 01:07:00;;;;;;;;;;;18.20;69.40;;;;;;4122939;28;20024;-86
2023/07/15 01:09:07;;;;;;;;;;;18.20;69.20;;;;;;4121039;28;19922;-88
2023/07/15 01:11:08;;;;;;;;;;;18.20;69.10;;;;;;4121756;28;20292;-88
2023/07/15 01:13:09;;;;;;;;;;;18.30;69.60;;;;;;4125024;28;19921;-89
2023/07/15 01:15:10;;;;;;;;;;;18.20;70.40;;;;;;4125055;28;20307;-90
2023/07/15 01:17:15;;;;;;;;;;;18.20;70.40;;;;;;4123839;28;19929;-89
2023/07/15 01:19:18;;;;;;;;;;;18.20;70.30;;;;;;4122831;28;20520;-88
2023/07/15 01:21:19;;;;;;;;;;;18.20;70.30;;;;;;4122978;28;19944;-88
2023/07/15 01:23:20;;;;;;;;;;;18.30;70.20;;;;;;4128198;28;19996;-90
2023/07/15 01:25:21;;;;;;;;;;;18.20;70.70;;;;;;4126192;28;19921;-88
2023/07/15 01:27:21;;;;;;;;;;;18.20;70.40;;;;;;4127348;28;19922;-88
2023/07/15 01:29:22;;;;;;;;;;;18.20;70.40;;;;;;4123497;28;19936;-88
2023/07/15 01:31:23;;;;;;;;;;;18.20;70.80;;;;;;4125041;28;20019;-89
2023/07/15 01:33:24;;;;;;;;;;;18.20;71.30;;;;;;4140007;28;19913;-88
2023/07/15 01:35:25;;;;;;;;;;;18.20;71.00;;;;;;4123686;28;19933;-89
2023/07/15 01:37:25;;;;;;;;;;;18.20;70.90;;;;;;4122456;28;19925;-90
2023/07/15 01:39:26;;;;;;;;;;;18.20;71.00;;;;;;4108986;28;19961;-89
2023/07/15 01:41:26;;;;;;;;;;;18.20;70.80;;;;;;4125885;28;19928;-89
2023/07/15 01:43:27;;;;;;;;;;;18.30;70.70;;;;;;4125438;28;19929;-87
2023/07/15 01:45:28;;;;;;;;;;;18.30;70.40;;;;;;4121258;28;19945;-89
2023/07/15 01:47:28;;;;;;;;;;;18.20;70.30;;;;;;4104549;28;20099;-88
2023/07/15 01:49:29;;;;;;;;;;;18.40;70.10;;;;;;4123778;28;20562;-89
2023/07/15 01:51:30;;;;;;;;;;;18.20;69.80;;;;;;4124236;28;19918;-86
2023/07/15 01:53:31;;;;;;;;;;;18.30;69.80;;;;;;4125679;28;19914;-88
2023/07/15 01:55:32;;;;;;;;;;;18.30;69.60;;;;;;4121999;28;19918;-88
2023/07/15 01:57:32;;;;;;;;;;;18.30;69.30;;;;;;4122754;28;20439;-89
2023/07/15 01:59:33;;;;;;;;;;;18.30;69.30;;;;;;4124410;28;20008;-87
2023/07/15 02:01:34;;;;;;;;;;;18.30;69.40;;;;;;4124478;28;19913;-87
2023/07/15 02:03:36;;;;;;;;;;;18.30;70.00;;;;;;4105723;28;19915;-87
2023/07/15 02:05:37;;;;;;;;;;;18.30;70.00;;;;;;4121853;28;19944;-88
2023/07/15 02:07:37;;;;;;;;;;;18.30;70.70;;;;;;4121161;28;20428;-89
2023/07/15 02:09:38;;;;;;;;;;;18.30;70.50;;;;;;4123488;28;19961;-87
2023/07/15 02:11:38;;;;;;;;;;;18.30;70.70;;;;;;4127202;28;19933;-88
2023/07/15 02:13:42;;;;;;;;;;;18.20;70.80;;;;;;4109211;28;19959;-89
2023/07/15 02:15:43;;;;;;;;;;;18.30;70.90;;;;;;4124877;28;20419;-89
2023/07/15 02:17:45;;;;;;;;;;;18.30;70.70;;;;;;4121006;28;20355;-89
2023/07/15 02:19:47;;;;;;;;;;;18.30;70.80;;;;;;4105933;28;20311;-88
2023/07/15 02:21:47;;;;;;;;;;;18.30;70.80;;;;;;4123340;28;20415;-89
2023/07/15 02:23:48;;;;;;;;;;;18.20;70.70;;;;;;4123809;28;19914;-89
2023/07/15 02:25:49;;;;;;;;;;;18.30;70.40;;;;;;4109365;28;19981;-89
2023/07/15 02:27:50;;;;;;;;;;;18.20;70.10;;;;;;4119118;28;19926;-89
2023/07/15 02:29:50;;;;;;;;;;;18.20;69.90;;;;;;4121292;28;19914;-90
2023/07/15 02:31:51;;;;;;;;;;;18.20;69.70;;;;;;4122547;28;19979;-89
2023/07/15 02:33:53;;;;;;;;;;;18.20;69.50;;;;;;4137325;28;20619;-89
2023/07/15 02:35:54;;;;;;;;;;;18.20;69.40;;;;;;4122620;28;19914;-88
2023/07/15 02:37:58;;;;;;;;;;;18.20;69.50;;;;;;4103750;28;19922;-88
2023/07/15 02:39:58;;;;;;;;;;;18.20;69.50;;;;;;4128844;28;19922;-89
2023/07/15 02:42:00;;;;;;;;;;;18.20;69.90;;;;;;4144872;28;19932;-88
2023/07/15 02:44:01;;;;;;;;;;;18.10;69.50;;;;;;4150084;28;19913;-88
2023/07/15 02:46:01;;;;;;;;;;;18.20;69.40;;;;;;4147012;28;19973;-88
2023/07/15 02:48:03;;;;;;;;;;;18.10;69.30;;;;;;4132480;28;19925;-88
2023/07/15 02:50:05;;;;;;;;;;;18.10;69.30;;;;;;4135207;28;20016;-88
2023/07/15 02:52:05;;;;;;;;;;;18.10;69.40;;;;;;4124209;28;19976;-87
2023/07/15 02:54:06;;;;;;;;;;;18.10;69.20;;;;;;4123116;28;19914;-89
2023/07/15 02:56:10;;;;;;;;;;;18.10;69.20;;;;;;4106412;28;19910;-89
2023/07/15 02:58:13;;;;;;;;;;;18.10;69.30;;;;;;4123594;28;19920;-89
2023/07/15 03:00:15;;;;;;;;;;;18.10;69.00;;;;;;4136122;28;19918;-87
2023/07/15 03:02:16;;;;;;;;;;;18.10;68.70;;;;;;4120033;28;19914;-88
2023/07/15 03:04:18;;;;;;;;;;;18.10;68.60;;;;;;4123569;28;19928;-89
2023/07/15 03:06:19;;;;;;;;;;;18.00;68.50;;;;;;4129273;28;19952;-87
2023/07/15 03:08:39;;;;;;;;;;;18.00;68.50;;;;;;4123303;28;20366;-88
2023/07/15 03:10:43;;;;;;;;;;;18.00;68.70;;;;;;4110184;28;19914;-88
2023/07/15 03:13:04;;;;;;;;;;;18.00;68.70;;;;;;4120591;28;20049;-88
2023/07/15 03:15:24;;;;;;;;;;;18.00;68.80;;;;;;4122018;28;19973;-88
2023/07/15 03:17:46;;;;;;;;;;;17.90;68.80;;;;;;4121649;28;20476;-87
2023/07/15 03:20:19;;;;;;;;;;;18.00;68.90;;;;;;4119827;28;19914;-88
2023/07/15 03:22:40;;;;;;;;;;;17.90;69.00;;;;;;4120270;28;19918;-87
2023/07/15 03:25:01;;;;;;;;;;;17.90;68.90;;;;;;4123188;28;19914;-88
2023/07/15 03:27:22;;;;;;;;;;;17.90;68.80;;;;;;4122545;28;20319;-88
2023/07/15 03:29:42;;;;;;;;;;;17.90;68.70;;;;;;4122447;28;20069;-88
2023/07/15 03:32:03;;;;;;;;;;;17.90;68.60;;;;;;4121266;28;21613;-87
2023/07/15 03:34:23;;;;;;;;;;;17.90;68.60;;;;;;4120426;28;19928;-88
2023/07/15 03:36:44;;;;;;;;;;;17.90;68.40;;;;;;4124074;28;20005;-88
2023/07/15 03:39:05;;;;;;;;;;;17.90;68.40;;;;;;4122066;28;20013;-88
2023/07/15 03:41:25;;;;;;;;;;;17.90;68.30;;;;;;4122927;28;19964;-88
2023/07/15 03:43:46;;;;;;;;;;;17.90;68.30;;;;;;4121434;28;19973;-87
2023/07/15 03:46:07;;;;;;;;;;;17.90;68.00;;;;;;4120624;28;20012;-88
2023/07/15 03:48:27;;;;;;;;;;;17.90;67.90;;;;;;4123294;28;19932;-89
2023/07/15 03:50:48;;;;;;;;;;;17.90;68.00;;;;;;4123821;28;20001;-88
2023/07/15 03:53:09;;;;;;;;;;;18.00;67.90;;;;;;4123557;28;19925;-88
2023/07/15 03:55:30;;;;;;;;;;;17.90;67.90;;;;;;4123599;28;20441;-88
2023/07/15 03:57:51;;;;;;;;;;;17.90;67.90;;;;;;4123750;28;20439;-89
2023/07/15 04:00:17;;;;;;;;;;;17.90;68.00;;;;;;4120703;28;20392;-89
2023/07/15 04:02:39;;;;;;;;;;;17.90;67.80;;;;;;4132113;28;20019;-88
2023/07/15 04:04:59;;;;;;;;;;;17.90;67.70;;;;;;4123065;28;20380;-88
2023/07/15 04:07:20;;;;;;;;;;;18.00;67.80;;;;;;4123059;28;19914;-88
2023/07/15 04:09:41;;;;;;;;;;;17.90;67.70;;;;;;4121347;28;19925;-89
2023/07/15 04:12:01;;;;;;;;;;;17.90;67.60;;;;;;4124637;28;20451;-89
2023/07/15 04:14:22;;;;;;;;;;;17.90;67.70;;;;;;4121991;28;20320;-89
2023/07/15 04:16:43;;;;;;;;;;;18.00;67.80;;;;;;4120037;28;20268;-89
2023/07/15 04:19:03;;;;;;;;;;;18.00;67.70;;;;;;4122975;28;20706;-87
2023/07/15 04:21:24;;;;;;;;;;;18.00;67.60;;;;;;4124268;28;19964;-88
2023/07/15 04:23:44;;;;;;;;;;;18.00;67.60;;;;;;4122080;28;19911;-89
2023/07/15 04:26:07;;;;;;;;;;;18.00;67.50;;;;;;4123679;28;20356;-90
2023/07/15 04:28:27;;;;;;;;;;;18.00;67.50;;;;;;4136507;28;19921;-88
2023/07/15 04:30:48;;;;;;;;;;;18.10;67.50;;;;;;4122201;28;20354;-89
2023/07/15 04:33:09;;;;;;;;;;;18.10;67.50;;;;;;4126543;28;19921;-89
2023/07/15 04:35:29;;;;;;;;;;;18.10;67.20;;;;;;4126736;28;19920;-90
2023/07/15 04:37:50;;;;;;;;;;;18.20;67.20;;;;;;4126263;28;20475;-88
2023/07/15 04:40:11;;;;;;;;;;;18.20;67.20;;;;;;4127024;28;20394;-89
2023/07/15 04:42:32;;;;;;;;;;;18.20;67.10;;;;;;4136895;28;20307;-88
2023/07/15 04:44:56;;;;;;;;;;;18.20;67.10;;;;;;4122982;28;20419;-87
2023/07/15 04:47:15;;;;;;;;;;;18.30;67.00;;;;;;4139239;28;19927;-89
2023/07/15 04:49:34;;;;;;;;;;;18.30;66.70;;;;;;4126291;28;19925;-90
2023/07/15 04:51:54;;;;;;;;;;;18.30;66.60;;;;;;4123319;28;20118;-89
2023/07/15 04:54:13;;;;;;;;;;;18.30;66.60;;;;;;4136654;28;19933;-89
2023/07/15 04:56:33;;;;;;;;;;;18.40;67.30;;;;;;4126468;28;20410;-86
2023/07/15 04:58:53;;;;;;;;;;;18.40;66.50;;;;;;4122750;28;19968;-87
2023/07/15 05:01:13;;;;;;;;;;;18.40;67.20;;;;;;4125845;28;20287;-90
2023/07/15 05:03:32;;;;;;;;;;;18.50;66.50;;;;;;4123548;28;19960;-89
2023/07/15 05:05:52;;;;;;;;;;;18.50;66.40;;;;;;4123542;28;20314;-88
2023/07/15 05:08:12;;;;;;;;;;;18.60;66.50;;;;;;4123926;28;19933;-89
2023/07/15 05:10:32;;;;;;;;;;;18.60;66.40;;;;;;4127836;28;19921;-88
2023/07/15 05:12:52;;;;;;;;;;;18.70;66.50;;;;;;4124280;28;20015;-88
2023/07/15 05:15:11;;;;;;;;;;;18.80;66.70;;;;;;4136028;28;20031;-90
2023/07/15 05:17:30;;;;;;;;;;;18.90;66.60;;;;;;4125279;28;19929;-88
2023/07/15 05:19:49;;;;;;;;;;;19.00;67.20;;;;;;4123593;28;20439;-90
2023/07/15 05:22:09;;;;;;;;;;;19.00;65.90;;;;;;4123150;28;20041;-89
2023/07/15 05:24:28;;;;;;;;;;;19.10;65.80;;;;;;4127080;28;19972;-92
2023/07/15 05:26:48;;;;;;;;;;;19.10;65.60;;;;;;4124530;28;19929;-90
2023/07/15 05:29:08;;;;;;;;;;;19.20;65.40;;;;;;4136401;28;20188;-90
2023/07/15 05:31:27;;;;;;;;;;;19.30;65.00;;;;;;4126793;28;19928;-90
2023/07/15 05:33:47;;;;;;;;;;;19.30;65.50;;;;;;4126344;28;19989;-90
2023/07/15 05:36:07;;;;;;;;;;;19.30;64.60;;;;;;4125093;28;19968;-89
2023/07/15 05:38:27;;;;;;;;;;;19.40;64.40;;;;;;4126343;28;19929;-90
2023/07/15 05:40:46;;;;;;;;;;;19.40;64.30;;;;;;4138258;28;19937;-89
2023/07/15 05:43:05;;;;;;;;;;;19.40;64.10;;;;;;4143695;28;19929;-87
2023/07/15 05:45:25;;;;;;;;;;;19.40;64.00;;;;;;4125109;28;20052;-88
2023/07/15 05:47:44;;;;;;;;;;;19.40;63.80;;;;;;4125517;28;20523;-89
2023/07/15 05:50:03;;;;;;;;;;;19.40;63.70;;;;;;4125564;28;19921;-89
2023/07/15 05:52:23;;;;;;;;;;;19.50;63.60;;;;;;4125569;28;19932;-89
2023/07/15 05:54:42;;;;;;;;;;;19.50;63.60;;;;;;4125527;28;19921;-89
2023/07/15 05:57:01;;;;;;;;;;;19.50;63.30;;;;;;4127763;28;19925;-89
2023/07/15 05:59:20;;;;;;;;;;;19.50;64.00;;;;;;4122641;28;20410;-89
2023/07/15 06:01:41;;;;;;;;;;;19.50;63.30;;;;;;4124170;28;19944;-87
2023/07/15 06:04:11;;;;;;;;;;;19.50;64.00;;;;;;4122295;28;20354;-88
2023/07/15 06:06:30;;;;;;;;;;;19.60;63.20;;;;;;4127869;28;20004;-89
2023/07/15 06:08:51;;;;;;;;;;;19.60;63.10;;;;;;4123051;28;19995;-89
2023/07/15 06:11:10;;;;;;;;;;;19.60;63.10;;;;;;4124405;28;19940;-88
2023/07/15 06:13:30;;;;;;;;;;;19.60;63.00;;;;;;4126543;28;19971;-88
2023/07/15 06:15:50;;;;;;;;;;;19.60;62.80;;;;;;4124327;28;19940;-89
2023/07/15 06:18:09;;;;;;;;;;;19.70;62.90;;;;;;4122698;28;19924;-88
2023/07/15 06:20:25;;;;;;;;;;;19.70;62.80;;;;;;4123752;28;20298;-87
2023/07/15 06:22:44;;;;;;;;;;;19.70;62.80;;;;;;4124864;28;19921;-89
2023/07/15 06:25:04;;;;;;;;;;;19.80;62.60;;;;;;4127903;28;19940;-88
2023/07/15 06:27:23;;;;;;;;;;;19.80;62.40;;;;;;4124962;28;20409;-89
2023/07/15 06:29:43;;;;;;;;;;;19.80;62.30;;;;;;4122764;28;19988;-89
2023/07/15 06:32:03;;;;;;;;;;;19.80;62.30;;;;;;4124910;28;20395;-87
2023/07/15 06:34:23;;;;;;;;;;;19.80;62.10;;;;;;4125779;28;20009;-89
2023/07/15 06:36:42;;;;;;;;;;;19.90;62.10;;;;;;4125183;28;19921;-88
2023/07/15 06:39:02;;;;;;;;;;;19.90;61.70;;;;;;4123402;28;19924;-88
2023/07/15 06:41:21;;;;;;;;;;;19.90;61.60;;;;;;4120382;28;19969;-89
2023/07/15 06:43:41;;;;;;;;;;;20.00;61.80;;;;;;4119262;28;19973;-89
2023/07/15 06:46:00;;;;;;;;;;;20.00;61.70;;;;;;4122497;28;19953;-87
2023/07/15 06:48:19;;;;;;;;;;;20.00;62.40;;;;;;4122644;28;19964;-88
2023/07/15 06:50:46;;;;;;;;;;;20.00;61.60;;;;;;4127770;28;22163;-89
2023/07/15 06:53:06;;;;;;;;;;;20.10;61.50;;;;;;4120992;28;19972;-89
2023/07/15 06:55:25;;;;;;;;;;;20.10;61.40;;;;;;4119877;28;19980;-89
2023/07/15 06:57:44;;;;;;;;;;;20.10;62.30;;;;;;4122692;28;19956;-89
2023/07/15 07:00:04;;;;;;;;;;;20.20;61.30;;;;;;4122683;28;19920;-88
2023/07/15 07:02:23;;;;;;;;;;;20.20;61.40;;;;;;4123034;28;19924;-87
2023/07/15 07:04:42;;;;;;;;;;;20.30;61.40;;;;;;4121707;28;20427;-90
2023/07/15 07:07:01;;;;;;;;;;;20.30;61.20;;;;;;4122994;28;19924;-90
2023/07/15 07:09:21;;;;;;;;;;;20.30;61.00;;;;;;4119968;28;19929;-89
2023/07/15 07:11:40;;;;;;;;;;;20.40;62.00;;;;;;4122238;28;19920;-91
2023/07/15 07:14:02;;;;;;;;;;;20.50;60.80;;;;;;4126813;28;20458;-89
2023/07/15 07:16:21;;;;;;;;;;;20.50;61.00;;;;;;4122404;28;20061;-91
2023/07/15 07:18:40;;;;;;;;;;;20.60;60.90;;;;;;4121102;28;20085;-89
2023/07/15 07:21:00;;;;;;;;;;;20.70;61.20;;;;;;4125593;28;19965;-89
2023/07/15 07:23:19;;;;;;;;;;;20.80;61.20;;;;;;4123058;28;19971;-89
2023/07/15 07:25:40;;;;;;;;;;;20.90;61.30;;;;;;4122141;28;20307;-88
2023/07/15 07:28:00;;;;;;;;;;;21.00;62.00;;;;;;4122960;28;19988;-88
2023/07/15 07:30:19;;;;;;;;;;;21.10;61.20;;;;;;4123299;28;19972;-88
2023/07/15 07:32:39;;;;;;;;;;;21.20;60.90;;;;;;4122803;28;20370;-90
2023/07/15 07:34:59;;;;;;;;;;;21.30;61.90;;;;;;4119954;28;20017;-88
2023/07/15 07:37:18;;;;;;;;;;;21.40;61.70;;;;;;4121310;28;19972;-89
2023/07/15 07:39:37;;;;;;;;;;;21.60;61.70;;;;;;4124348;28;19984;-87
2023/07/15 07:41:54;;;;;;;;;;;21.70;61.60;;;;;;4134971;28;19964;-89
2023/07/15 07:44:14;;;;;;;;;;;21.90;60.70;;;;;;4131172;28;19921;-89
2023/07/15 07:46:33;;;;;;;;;;;22.10;60.40;;;;;;4132327;28;19946;-89
2023/07/15 07:48:53;;;;;;;;;;;22.20;60.20;;;;;;4135588;28;19947;-90
2023/07/15 07:51:12;;;;;;;;;;;22.30;60.00;;;;;;4145374;28;19990;-89
2023/07/15 07:53:32;;;;;;;;;;;22.40;60.00;;;;;;4144544;28;19972;-90
2023/07/15 07:55:51;;;;;;;;;;;22.60;60.10;;;;;;4142700;28;19972;-89
2023/07/15 07:58:10;;;;;;;;;;;22.70;59.80;;;;;;4121482;28;19928;-90
2023/07/15 08:00:30;;;;;;;;;;;22.90;59.80;;;;;;4124845;28;20133;-90
2023/07/15 08:02:49;;;;;;;;;;;23.00;59.90;;;;;;4123842;28;19977;-90
2023/07/15 08:05:08;;;;;;;;;;;23.20;59.30;;;;;;4124576;28;20492;-89
2023/07/15 08:07:27;;;;;;;;;;;23.30;58.50;;;;;;4124902;28;19928;-88
2023/07/15 08:09:47;;;;;;;;;;;23.40;58.10;;;;;;4127050;28;19997;-86
2023/07/15 08:12:08;;;;;;;;;;;23.50;57.20;;;;;;4127733;28;20017;-86
2023/07/15 08:14:27;;;;;;;;;;;23.70;57.60;;;;;;4127845;28;20065;-86
2023/07/15 08:16:46;;;;;;;;;;;23.80;57.00;;;;;;4128909;28;19920;-85
2023/07/15 08:19:06;;;;;;;;;;;23.90;55.50;;;;;;4126783;28;20488;-85
2023/07/15 08:21:26;;;;;;;;;;;24.00;55.50;;;;;;4128996;28;20013;-86
2023/07/15 08:23:45;;;;;;;;;;;24.20;55.30;;;;;;4128245;28;19936;-87
2023/07/15 08:26:05;;;;;;;;;;;24.20;54.10;;;;;;4145671;28;19919;-87
2023/07/15 08:28:24;;;;;;;;;;;24.40;52.70;;;;;;4134665;28;19976;-86
2023/07/15 08:30:43;;;;;;;;;;;24.50;55.40;;;;;;4133099;28;19932;-88
2023/07/15 08:33:06;;;;;;;;;;;24.60;54.70;;;;;;4133368;28;19920;-87
2023/07/15 08:35:25;;;;;;;;;;;24.70;54.10;;;;;;4129099;28;19993;-88
2023/07/15 08:37:44;;;;;;;;;;;24.80;54.50;;;;;;4131081;28;19921;-86
2023/07/15 08:40:06;;;;;;;;;;;24.90;51.20;;;;;;4132289;28;19925;-85
2023/07/15 08:42:25;;;;;;;;;;;25.00;54.50;;;;;;4129709;28;19964;-85
2023/07/15 08:44:45;;;;;;;;;;;25.10;55.00;;;;;;4136267;28;19912;-85
2023/07/15 08:47:04;;;;;;;;;;;25.20;54.40;;;;;;4141283;28;19965;-87
2023/07/15 08:49:25;;;;;;;;;;;25.30;52.00;;;;;;4131223;28;20363;-85
2023/07/15 08:51:44;;;;;;;;;;;25.40;52.70;;;;;;4127460;28;19964;-86
2023/07/15 08:54:05;;;;;;;;;;;25.50;50.40;;;;;;4129407;28;19961;-84
2023/07/15 08:56:25;;;;;;;;;;;25.60;50.60;;;;;;4129972;28;19940;-85
2023/07/15 08:58:47;;;;;;;;;;;25.70;51.70;;;;;;4125008;28;20349;-86
2023/07/15 09:01:06;;;;;;;;;;;25.80;51.30;;;;;;4128191;28;20562;-85
2023/07/15 09:03:27;;;;;;;;;;;25.90;53.00;;;;;;4123882;28;19948;-85
2023/07/15 09:05:48;;;;;;;;;;;26.00;51.70;;;;;;4129258;28;19920;-86
2023/07/15 09:08:11;;;;;;;;;;;26.00;52.20;;;;;;4126120;28;20240;-84
2023/07/15 09:10:31;;;;;;;;;;;26.20;51.60;;;;;;4126106;28;19921;-84
2023/07/15 09:12:54;;;;;;;;;;;26.30;51.00;;;;;;4127554;28;20327;-85
2023/07/15 09:15:13;;;;;;;;;;;26.30;50.40;;;;;;4124887;28;19972;-83
2023/07/15 09:17:33;;;;;;;;;;;26.40;51.00;;;;;;4127145;28;19940;-85
2023/07/15 09:19:52;;;;;;;;;;;26.50;51.30;;;;;;4123662;28;19929;-85
2023/07/15 09:22:12;;;;;;;;;;;26.60;49.70;;;;;;4123903;28;20055;-84
2023/07/15 09:24:32;;;;;;;;;;;26.60;45.90;;;;;;4126361;28;20980;-85
2023/07/15 09:26:52;;;;;;;;;;;26.70;47.40;;;;;;4127879;28;19973;-83
2023/07/15 09:29:11;;;;;;;;;;;26.80;46.90;;;;;;4127993;28;19932;-86
2023/07/15 09:31:30;;;;;;;;;;;26.80;47.30;;;;;;4135672;28;19984;-86
2023/07/15 09:33:50;;;;;;;;;;;26.90;47.80;;;;;;4127405;28;19920;-84
2023/07/15 09:36:11;;;;;;;;;;;26.90;47.60;;;;;;4125898;28;19964;-85
2023/07/15 09:38:31;;;;;;;;;;;27.00;47.80;;;;;;4119894;28;19953;-85
2023/07/15 09:40:50;;;;;;;;;;;27.00;47.50;;;;;;4125730;28;19996;-83
2023/07/15 09:46:09;;;;;;;;;;;27.20;48.00;;;;;;4127013;28;19928;-84
2023/07/15 09:48:30;;;;;;;;;;;27.10;45.70;;;;;;4123672;28;19932;-84
2023/07/15 09:50:50;;;;;;;;;;;27.30;47.90;;;;;;4124450;28;19929;-86
2023/07/15 09:53:09;;;;;;;;;;;27.30;47.60;;;;;;4127558;28;19955;-84
2023/07/15 09:55:30;;;;;;;;;;;27.40;48.60;;;;;;4125620;28;19925;-84
2023/07/15 09:58:11;;;;;;;;;;;27.40;48.10;;;;;;4125462;28;20046;-85
2023/07/15 10:00:33;;;;;;;;;;;27.50;48.60;;;;;;4126072;28;19924;-85
2023/07/15 10:02:56;;;;;;;;;;;27.50;46.60;;;;;;4127020;28;19925;-86
2023/07/15 10:05:37;;;;;;;;;;;27.60;47.40;;;;;;4124471;28;20009;-86
2023/07/15 10:08:38;;;;;;;;;;;27.70;44.20;;;;;;4127492;28;19937;-84
2023/07/15 10:13:16;;;;;;;;;;;27.80;45.50;;;;;;4107774;28;19941;-86
2023/07/15 10:15:39;;;;;;;;;;;27.80;44.80;;;;;;4109654;28;19964;-84
2023/07/15 10:18:13;;;;;;;;;;;27.70;44.60;;;;;;4108867;28;20034;-83
2023/07/15 10:20:34;;;;;;;;;;;27.80;45.80;;;;;;4109356;28;19925;-84
2023/07/15 10:22:58;;;;;;;;;;;27.90;45.50;;;;;;4107028;28;19968;-86
2023/07/15 10:28:44;;;;;;;;;;;27.90;47.10;;;;;;4109089;28;19933;-83
2023/07/15 10:31:08;;;;;;;;;;;28.00;47.30;;;;;;4139728;23;19924;-85
2023/07/15 10:33:27;;;;;;;;;;;28.10;46.20;;;;;;4127806;28;19973;-84
2023/07/15 10:35:47;;;;;;;;;;;28.10;44.40;;;;;;4128650;28;20208;-83
2023/07/15 10:45:41;;;;;;;;;;;28.30;45.80;;;;;;4332849;23;20005;-84
2023/07/15 10:48:06;;;;;;;;;;;28.30;44.30;;;;;;4115033;28;19953;-82
2023/07/15 10:51:00;;;;;;;;;;;28.40;45.90;;;;;;4124818;28;19989;-84
2023/07/15 10:53:44;;;;;;;;;;;28.40;46.30;;;;;;4109369;28;19944;-83
2023/07/15 10:56:09;;;;;;;;;;;28.50;46.30;;;;;;4111267;28;19964;-84
2023/07/15 10:58:29;;;;;;;;;;;28.60;45.60;;;;;;4098212;28;19922;-83
2023/07/15 11:00:49;;;;;;;;;;;28.60;45.00;;;;;;4099559;28;20459;-85
2023/07/15 11:03:09;;;;;;;;;;;28.60;44.80;;;;;;4110377;28;19972;-84
2023/07/15 11:05:29;;;;;;;;;;;28.70;44.90;;;;;;4100932;28;19929;-86
2023/07/15 11:08:20;;;;;;;;;;;28.80;46.00;;;;;;4095930;28;19930;-85
2023/07/15 11:10:43;;;;;;;;;;;28.80;45.60;;;;;;4076656;29;20447;-86
2023/07/15 11:13:14;;;;;;;;;;;28.80;45.90;;;;;;4083514;29;19946;-86
2023/07/15 11:15:35;;;;;;;;;;;28.90;45.20;;;;;;4081301;29;20274;-84
2023/07/15 11:17:54;;;;;;;;;;;28.90;45.50;;;;;;4080898;29;19930;-85
2023/07/15 11:20:13;;;;;;;;;;;28.90;44.70;;;;;;4075053;29;20002;-85
2023/07/15 11:22:33;;;;;;;;;;;29.00;44.90;;;;;;4083047;29;19922;-86
2023/07/15 11:24:52;;;;;;;;;;;29.00;44.90;;;;;;4081753;29;20559;-84
2023/07/15 11:27:11;;;;;;;;;;;29.00;44.10;;;;;;4065706;29;19934;-85
2023/07/15 11:29:30;;;;;;;;;;;29.00;44.20;;;;;;4080313;29;19981;-83
2023/07/15 11:31:53;;;;;;;;;;;29.00;44.70;;;;;;4080954;29;19925;-86
2023/07/15 11:34:15;;;;;;;;;;;29.00;45.20;;;;;;4078677;29;20489;-85
2023/07/15 11:36:34;;;;;;;;;;;29.00;45.30;;;;;;4066298;29;19970;-86
2023/07/15 11:38:54;;;;;;;;;;;29.10;45.00;;;;;;4078640;29;19979;-86
2023/07/15 11:41:13;;;;;;;;;;;29.10;44.80;;;;;;4079170;29;19930;-86
2023/07/15 11:43:32;;;;;;;;;;;29.10;44.80;;;;;;4065682;29;19982;-84
2023/07/15 11:45:56;;;;;;;;;;;29.10;44.60;;;;;;4079356;28;19989;-87
2023/07/15 11:48:18;;;;;;;;;;;29.10;44.20;;;;;;4095825;28;19929;-83
2023/07/15 11:50:38;;;;;;;;;;;29.10;44.60;;;;;;4094660;28;20009;-85
2023/07/15 11:52:58;;;;;;;;;;;29.10;45.00;;;;;;4100652;28;20237;-86
2023/07/15 11:55:24;;;;;;;;;;;29.10;44.40;;;;;;4088265;28;19929;-84
2023/07/15 11:57:45;;;;;;;;;;;29.10;43.60;;;;;;4103406;28;19921;-86
2023/07/15 12:00:04;;;;;;;;;;;29.10;44.60;;;;;;4094571;28;19925;-85
2023/07/15 12:02:24;;;;;;;;;;;29.10;45.50;;;;;;4091126;28;19925;-82
2023/07/15 12:04:43;;;;;;;;;;;29.20;44.90;;;;;;4092889;28;19949;-84
2023/07/15 12:07:03;;;;;;;;;;;29.20;43.90;;;;;;4089052;28;19985;-85
2023/07/15 12:09:24;;;;;;;;;;;29.20;44.00;;;;;;4099541;28;20343;-85
2023/07/15 12:11:43;;;;;;;;;;;29.20;44.60;;;;;;4094800;28;19920;-85
2023/07/15 12:14:04;;;;;;;;;;;29.10;44.60;;;;;;4093366;28;20000;-85
2023/07/15 12:16:23;;;;;;;;;;;29.10;44.60;;;;;;4095276;28;19966;-86
2023/07/15 12:18:43;;;;;;;;;;;29.10;44.30;;;;;;4092591;28;19924;-85
2023/07/15 12:21:03;;;;;;;;;;;29.10;44.50;;;;;;4090275;28;19929;-84
2023/07/15 12:23:22;;;;;;;;;;;29.10;44.20;;;;;;4094373;28;20014;-84
2023/07/15 12:25:42;;;;;;;;;;;29.10;44.70;;;;;;4112363;28;19980;-83
2023/07/15 12:28:01;;;;;;;;;;;29.00;44.20;;;;;;4109140;28;19926;-86
2023/07/15 12:30:23;;;;;;;;;;;29.00;44.60;;;;;;4133539;23;19916;-85
2023/07/15 12:32:42;;;;;;;;;;;29.00;44.70;;;;;;4108634;28;19954;-85
2023/07/15 12:35:02;;;;;;;;;;;29.10;45.20;;;;;;4111372;28;19917;-87
2023/07/15 12:37:21;;;;;;;;;;;29.00;45.50;;;;;;4111989;28;20375;-84
2023/07/15 12:39:41;;;;;;;;;;;29.00;45.90;;;;;;4098401;28;19925;-84
2023/07/15 12:42:00;;;;;;;;;;;29.00;46.50;;;;;;4108059;28;19921;-86
2023/07/15 12:44:19;;;;;;;;;;;29.10;46.00;;;;;;4095982;28;19929;-83
2023/07/15 12:46:38;;;;;;;;;;;29.10;46.30;;;;;;4098885;28;20543;-84
2023/07/15 12:48:57;;;;;;;;;;;29.10;45.90;;;;;;4098601;28;19929;-84
2023/07/15 12:51:17;;;;;;;;;;;29.10;45.90;;;;;;4100121;28;19996;-84
2023/07/15 12:53:37;;;;;;;;;;;29.10;45.70;;;;;;4099084;28;20009;-85
2023/07/15 12:55:56;;;;;;;;;;;29.10;45.40;;;;;;4100895;28;19921;-85
2023/07/15 12:58:15;;;;;;;;;;;29.10;45.50;;;;;;4102466;28;19972;-86
2023/07/15 13:00:35;;;;;;;;;;;29.10;45.50;;;;;;4099099;28;19925;-85
2023/07/15 13:02:54;;;;;;;;;;;29.10;45.70;;;;;;4101024;28;20407;-84
2023/07/15 13:05:13;;;;;;;;;;;29.10;45.60;;;;;;4101428;28;19930;-85
2023/07/15 13:07:33;;;;;;;;;;;29.00;45.70;;;;;;4111153;28;20064;-84
2023/07/15 13:09:52;;;;;;;;;;;29.00;45.60;;;;;;4095558;28;20022;-84
2023/07/15 13:12:11;;;;;;;;;;;29.00;45.60;;;;;;4111328;28;20001;-88
2023/07/15 13:14:30;;;;;;;;;;;29.00;46.40;;;;;;4101954;28;19921;-84
2023/07/15 13:16:49;;;;;;;;;;;29.10;45.80;;;;;;4108964;28;20476;-84
2023/07/15 13:19:09;;;;;;;;;;;29.10;46.70;;;;;;4100400;28;19995;-86
2023/07/15 13:21:29;;;;;;;;;;;29.10;45.90;;;;;;4099531;28;19981;-86
2023/07/15 13:23:48;;;;;;;;;;;29.10;45.60;;;;;;4112681;28;20410;-84
2023/07/15 13:26:07;;;;;;;;;;;29.10;45.30;;;;;;4094793;28;20280;-84
2023/07/15 13:28:27;;;;;;;;;;;29.10;45.80;;;;;;4096690;28;19925;-85